LiveATC.Net - Listen to live air traffic control over the Internet! Contact for advertising information

ICAO: CYOO  IATA: YOO   Airport: Oshawa Municipal Airport
City: Oshawa   State/Province: Ontario
Country: Canada   Continent: North America
CYOO METAR Weather: CYOO 092100Z AUTO 33010G16KT 9SM OVC031 13/07 A2993 RMK SLP138
CYOO Flight Activity (FlightAware)
CYOO Twr/Gnd #2
Feed Status: UP   Listeners: 2
Listen right in your browser - requires Flash (in browser, requires Flash)
Click here to listen with your own player (launches your MP3 player)
CYOO Twr/Gnd #2 Audio Archives
Oshawa Ground118.400
Oshawa Tower120.100

NOTE: Distant receiver near Toronto


Unauthorized use prohibited. See Terms of Service

Find LiveATC Audio Streams

Airport/ARTCC Code

(e.g., 124.400, 128.75)
Site-wide search

Browse LiveATC Feeds
LiveATC Coverage Map
Top 50 LiveATC Feeds
Bad Weather Areas

Offer a LiveATC Feed
Press Inquiries

LiveATC on iPhone
LiveATC on Android

Windows Phone
Windows 8/10

LiveATC Mobile
(Mobile browser)

ATC Audio Archives
Interesting Recordings

LiveATC Forums

Home Page
Make a Donation
LiveATC Bookstore

Terms of Use
Privacy Policy

ATC/Radar Sites
U.S. ARTCC Freqs
Canadian Air Freqs


FAA Airport Status
Nat'l Airspace Status
Arrival Demand Charts

Server Software By:

Please make a donation to help us keep growing!